13°C Temp
7°C Dewpoint
67% Humidity
Temperature
11 KM/H
7 MPH
6 KTS
120°
East South
East

Wind Speed
Partly Cloudy
Conditions
Pressure 1028.92 (hPa) - 30.38 (in)
Visibility 6.2 (mi) - 10.0 (km)

Current Conditions
LEMG
Location 9(km)
Metar :LEMG 021700Z 12006KT 090V150 9999 FEW025 13/07 Q1029 NOSIG
Thu 2nd February 19:00 pm

Airport
  Metar Aviation API Data Provided by https://www.checkwx.com/ PHP scripts by weather34.com ©2023